sensor_id;sensor_type;location;lat;lon;timestamp;pressure;altitude;pressure_sealevel;temperature;humidity
75551;BME280;65071;53.082;18.218;2023-08-21T00:02:11;101778.08;;;21.60;82.45
75551;BME280;65071;53.082;18.218;2023-08-21T00:04:37;101778.09;;;21.57;82.70
75551;BME280;65071;53.082;18.218;2023-08-21T00:07:04;101782.63;;;21.53;82.61
75551;BME280;65071;53.082;18.218;2023-08-21T00:09:30;101784.38;;;21.49;82.28
75551;BME280;65071;53.082;18.218;2023-08-21T00:11:57;101778.21;;;21.43;82.03
75551;BME280;65071;53.082;18.218;2023-08-21T00:14:23;101771.71;;;21.41;81.68
75551;BME280;65071;53.082;18.218;2023-08-21T00:16:50;101770.48;;;21.35;82.01
75551;BME280;65071;53.082;18.218;2023-08-21T00:19:17;101767.91;;;21.30;82.24
75551;BME280;65071;53.082;18.218;2023-08-21T00:21:43;101762.70;;;21.23;82.79
75551;BME280;65071;53.082;18.218;2023-08-21T00:24:10;101766.25;;;21.19;82.81
75551;BME280;65071;53.082;18.218;2023-08-21T00:26:36;101764.42;;;21.13;82.98
75551;BME280;65071;53.082;18.218;2023-08-21T00:29:03;101766.61;;;21.08;82.46
75551;BME280;65071;53.082;18.218;2023-08-21T00:31:30;101765.23;;;21.03;82.72
75551;BME280;65071;53.082;18.218;2023-08-21T00:33:56;101772.91;;;20.98;82.69
75551;BME280;65071;53.082;18.218;2023-08-21T00:36:23;101772.96;;;20.95;82.26
75551;BME280;65071;53.082;18.218;2023-08-21T00:38:49;101771.83;;;20.93;82.07
75551;BME280;65071;53.082;18.218;2023-08-21T00:41:16;101768.86;;;20.91;81.77
75551;BME280;65071;53.082;18.218;2023-08-21T00:43:42;101769.58;;;20.90;82.24
75551;BME280;65071;53.082;18.218;2023-08-21T00:46:11;101769.18;;;20.89;82.23
75551;BME280;65071;53.082;18.218;2023-08-21T00:48:37;101771.99;;;20.87;81.94
75551;BME280;65071;53.082;18.218;2023-08-21T00:51:05;101773.44;;;20.84;82.38
75551;BME280;65071;53.082;18.218;2023-08-21T00:53:33;101771.65;;;20.82;82.26
75551;BME280;65071;53.082;18.218;2023-08-21T00:56:00;101769.19;;;20.82;82.00
75551;BME280;65071;53.082;18.218;2023-08-21T00:58:27;101782.56;;;20.81;82.80
75551;BME280;65071;53.082;18.218;2023-08-21T01:00:54;101784.93;;;20.82;82.82
75551;BME280;65071;53.082;18.218;2023-08-21T01:03:20;101785.10;;;20.82;83.10
75551;BME280;65071;53.082;18.218;2023-08-21T01:05:47;101785.61;;;20.82;82.53
75551;BME280;65071;53.082;18.218;2023-08-21T01:11:15;101781.05;;;20.78;82.28
75551;BME280;65071;53.082;18.218;2023-08-21T01:16:32;101780.50;;;20.70;82.36
75551;BME280;65071;53.082;18.218;2023-08-21T01:18:59;101773.11;;;20.67;82.09
75551;BME280;65071;53.082;18.218;2023-08-21T01:21:27;101774.42;;;20.64;81.87
75551;BME280;65071;53.082;18.218;2023-08-21T01:23:54;101777.81;;;20.60;81.94
75551;BME280;65071;53.082;18.218;2023-08-21T01:26:21;101779.00;;;20.57;82.06
75551;BME280;65071;53.082;18.218;2023-08-21T01:28:47;101783.29;;;20.53;81.99
75551;BME280;65071;53.082;18.218;2023-08-21T01:31:24;101784.11;;;20.50;81.93
75551;BME280;65071;53.082;18.218;2023-08-21T01:33:59;101780.51;;;20.46;81.82
75551;BME280;65071;53.082;18.218;2023-08-21T01:36:26;101779.27;;;20.42;82.00
75551;BME280;65071;53.082;18.218;2023-08-21T01:38:53;101775.52;;;20.37;81.91
75551;BME280;65071;53.082;18.218;2023-08-21T01:41:23;101775.46;;;20.30;81.76
75551;BME280;65071;53.082;18.218;2023-08-21T01:43:49;101777.60;;;20.23;81.79
75551;BME280;65071;53.082;18.218;2023-08-21T01:46:16;101778.21;;;20.17;82.09
75551;BME280;65071;53.082;18.218;2023-08-21T01:48:43;101777.86;;;20.10;82.50
75551;BME280;65071;53.082;18.218;2023-08-21T01:51:10;101777.80;;;20.04;82.34
75551;BME280;65071;53.082;18.218;2023-08-21T01:53:36;101770.64;;;19.97;82.60
75551;BME280;65071;53.082;18.218;2023-08-21T01:56:03;101770.66;;;19.92;83.40
75551;BME280;65071;53.082;18.218;2023-08-21T01:58:32;101766.08;;;19.88;82.77
75551;BME280;65071;53.082;18.218;2023-08-21T02:00:58;101770.79;;;19.84;83.20
75551;BME280;65071;53.082;18.218;2023-08-21T02:03:25;101776.89;;;19.77;83.36
75551;BME280;65071;53.082;18.218;2023-08-21T02:05:55;101778.11;;;19.75;82.95
75551;BME280;65071;53.082;18.218;2023-08-21T02:08:27;101780.71;;;19.72;82.77
75551;BME280;65071;53.082;18.218;2023-08-21T02:10:56;101786.62;;;19.70;82.67
75551;BME280;65071;53.082;18.218;2023-08-21T02:13:23;101784.55;;;19.67;83.00
75551;BME280;65071;53.082;18.218;2023-08-21T02:15:50;101786.23;;;19.64;83.03
75551;BME280;65071;53.082;18.218;2023-08-21T02:18:17;101790.34;;;19.60;82.94
75551;BME280;65071;53.082;18.218;2023-08-21T02:20:44;101785.74;;;19.58;82.83
75551;BME280;65071;53.082;18.218;2023-08-21T02:23:10;101781.80;;;19.56;82.87
75551;BME280;65071;53.082;18.218;2023-08-21T02:25:37;101781.56;;;19.53;82.95
75551;BME280;65071;53.082;18.218;2023-08-21T02:28:04;101790.99;;;19.51;82.98
75551;BME280;65071;53.082;18.218;2023-08-21T02:30:30;101784.48;;;19.47;82.75
75551;BME280;65071;53.082;18.218;2023-08-21T02:32:57;101785.76;;;19.44;82.65
75551;BME280;65071;53.082;18.218;2023-08-21T02:35:24;101789.99;;;19.41;82.86
75551;BME280;65071;53.082;18.218;2023-08-21T02:37:50;101790.38;;;19.38;82.96
75551;BME280;65071;53.082;18.218;2023-08-21T02:40:17;101793.21;;;19.34;82.95
75551;BME280;65071;53.082;18.218;2023-08-21T02:42:44;101790.62;;;19.28;82.96
75551;BME280;65071;53.082;18.218;2023-08-21T02:45:10;101791.34;;;19.24;83.09
75551;BME280;65071;53.082;18.218;2023-08-21T02:47:38;101793.07;;;19.18;83.15
75551;BME280;65071;53.082;18.218;2023-08-21T02:50:05;101795.46;;;19.14;83.00
75551;BME280;65071;53.082;18.218;2023-08-21T02:52:33;101796.11;;;19.08;83.39
75551;BME280;65071;53.082;18.218;2023-08-21T02:55:01;101785.25;;;19.03;83.64
75551;BME280;65071;53.082;18.218;2023-08-21T02:57:28;101783.86;;;18.98;83.10
75551;BME280;65071;53.082;18.218;2023-08-21T02:59:54;101786.63;;;18.93;83.48
75551;BME280;65071;53.082;18.218;2023-08-21T03:02:22;101789.39;;;18.90;83.55
75551;BME280;65071;53.082;18.218;2023-08-21T03:04:49;101782.99;;;18.86;83.79
75551;BME280;65071;53.082;18.218;2023-08-21T03:07:16;101783.36;;;18.81;83.23
75551;BME280;65071;53.082;18.218;2023-08-21T03:09:44;101782.13;;;18.76;83.25
75551;BME280;65071;53.082;18.218;2023-08-21T03:12:11;101783.58;;;18.70;83.31
75551;BME280;65071;53.082;18.218;2023-08-21T03:14:37;101788.79;;;18.66;83.20
75551;BME280;65071;53.082;18.218;2023-08-21T03:17:04;101789.54;;;18.61;83.20
75551;BME280;65071;53.082;18.218;2023-08-21T03:19:31;101789.80;;;18.56;83.27
75551;BME280;65071;53.082;18.218;2023-08-21T03:21:57;101796.33;;;18.52;83.39
75551;BME280;65071;53.082;18.218;2023-08-21T03:24:24;101795.26;;;18.47;83.49
75551;BME280;65071;53.082;18.218;2023-08-21T03:26:50;101797.74;;;18.43;83.04
75551;BME280;65071;53.082;18.218;2023-08-21T03:29:17;101798.03;;;18.38;83.06
75551;BME280;65071;53.082;18.218;2023-08-21T03:31:48;101799.05;;;18.33;82.97
75551;BME280;65071;53.082;18.218;2023-08-21T03:34:15;101799.96;;;18.30;83.07
75551;BME280;65071;53.082;18.218;2023-08-21T03:36:42;101801.89;;;18.26;82.78
75551;BME280;65071;53.082;18.218;2023-08-21T03:39:09;101808.25;;;18.21;83.10
75551;BME280;65071;53.082;18.218;2023-08-21T03:41:39;101812.44;;;18.17;83.15
75551;BME280;65071;53.082;18.218;2023-08-21T03:44:06;101817.86;;;18.13;82.86
75551;BME280;65071;53.082;18.218;2023-08-21T03:46:32;101824.52;;;18.08;83.90
75551;BME280;65071;53.082;18.218;2023-08-21T03:49:00;101820.95;;;18.05;83.33
75551;BME280;65071;53.082;18.218;2023-08-21T03:51:27;101819.29;;;18.02;83.40
75551;BME280;65071;53.082;18.218;2023-08-21T03:53:53;101820.83;;;18.01;83.40
75551;BME280;65071;53.082;18.218;2023-08-21T03:56:19;101820.62;;;18.01;83.18
75551;BME280;65071;53.082;18.218;2023-08-21T03:58:46;101813.10;;;18.01;83.04
75551;BME280;65071;53.082;18.218;2023-08-21T04:01:14;101806.45;;;18.03;82.88
75551;BME280;65071;53.082;18.218;2023-08-21T04:03:41;101806.02;;;18.05;82.78
75551;BME280;65071;53.082;18.218;2023-08-21T04:06:08;101807.64;;;18.07;83.42
75551;BME280;65071;53.082;18.218;2023-08-21T04:08:35;101806.45;;;18.09;83.16
75551;BME280;65071;53.082;18.218;2023-08-21T04:11:02;101808.60;;;18.12;82.50
75551;BME280;65071;53.082;18.218;2023-08-21T04:13:28;101812.67;;;18.20;82.57
75551;BME280;65071;53.082;18.218;2023-08-21T04:15:55;101814.00;;;18.28;82.46
75551;BME280;65071;53.082;18.218;2023-08-21T04:18:23;101814.84;;;18.38;82.27
75551;BME280;65071;53.082;18.218;2023-08-21T04:20:50;101819.16;;;18.48;82.12
75551;BME280;65071;53.082;18.218;2023-08-21T04:23:17;101820.54;;;18.60;81.83
75551;BME280;65071;53.082;18.218;2023-08-21T04:25:43;101814.36;;;18.70;81.60
75551;BME280;65071;53.082;18.218;2023-08-21T04:28:10;101817.84;;;18.83;81.21
75551;BME280;65071;53.082;18.218;2023-08-21T04:30:40;101819.00;;;18.93;81.05
75551;BME280;65071;53.082;18.218;2023-08-21T04:33:08;101821.05;;;19.00;80.56
75551;BME280;65071;53.082;18.218;2023-08-21T04:35:38;101821.73;;;19.08;80.20
75551;BME280;65071;53.082;18.218;2023-08-21T04:38:05;101818.19;;;19.19;80.24
75551;BME280;65071;53.082;18.218;2023-08-21T04:40:33;101819.19;;;19.33;80.05
75551;BME280;65071;53.082;18.218;2023-08-21T04:43:01;101822.62;;;19.47;79.50
75551;BME280;65071;53.082;18.218;2023-08-21T04:45:27;101824.88;;;19.60;79.16
75551;BME280;65071;53.082;18.218;2023-08-21T04:47:54;101824.09;;;19.71;78.33
75551;BME280;65071;53.082;18.218;2023-08-21T04:50:21;101824.59;;;19.83;78.36
75551;BME280;65071;53.082;18.218;2023-08-21T04:52:49;101821.76;;;19.94;77.75
75551;BME280;65071;53.082;18.218;2023-08-21T04:55:17;101818.15;;;20.04;77.34
75551;BME280;65071;53.082;18.218;2023-08-21T04:57:44;101818.54;;;20.12;76.65
75551;BME280;65071;53.082;18.218;2023-08-21T05:00:11;101814.77;;;20.24;76.46
75551;BME280;65071;53.082;18.218;2023-08-21T05:02:40;101817.82;;;20.38;76.42
75551;BME280;65071;53.082;18.218;2023-08-21T05:05:07;101814.14;;;20.48;75.40
75551;BME280;65071;53.082;18.218;2023-08-21T05:07:35;101815.20;;;20.58;75.29
75551;BME280;65071;53.082;18.218;2023-08-21T05:10:02;101816.76;;;20.67;75.08
75551;BME280;65071;53.082;18.218;2023-08-21T05:12:29;101817.05;;;20.78;74.47
75551;BME280;65071;53.082;18.218;2023-08-21T05:14:56;101828.89;;;20.91;74.07
75551;BME280;65071;53.082;18.218;2023-08-21T05:17:24;101833.01;;;21.01;72.78
75551;BME280;65071;53.082;18.218;2023-08-21T05:19:52;101827.40;;;21.10;71.98
75551;BME280;65071;53.082;18.218;2023-08-21T05:22:20;101831.39;;;21.16;71.73
75551;BME280;65071;53.082;18.218;2023-08-21T05:24:47;101829.31;;;21.21;71.85
75551;BME280;65071;53.082;18.218;2023-08-21T05:27:13;101834.71;;;21.33;71.63
75551;BME280;65071;53.082;18.218;2023-08-21T05:29:40;101835.50;;;21.40;71.19
75551;BME280;65071;53.082;18.218;2023-08-21T05:32:06;101840.17;;;21.52;71.46
75551;BME280;65071;53.082;18.218;2023-08-21T05:34:33;101840.60;;;21.63;70.84
75551;BME280;65071;53.082;18.218;2023-08-21T05:36:59;101842.29;;;21.73;70.41
75551;BME280;65071;53.082;18.218;2023-08-21T05:39:26;101843.34;;;21.84;70.46
75551;BME280;65071;53.082;18.218;2023-08-21T05:41:53;101847.48;;;21.89;68.98
75551;BME280;65071;53.082;18.218;2023-08-21T05:44:20;101851.34;;;21.97;69.36
75551;BME280;65071;53.082;18.218;2023-08-21T05:46:46;101855.08;;;21.99;68.21
75551;BME280;65071;53.082;18.218;2023-08-21T05:49:13;101857.66;;;22.06;68.69
75551;BME280;65071;53.082;18.218;2023-08-21T05:51:40;101856.50;;;22.15;67.65
75551;BME280;65071;53.082;18.218;2023-08-21T05:54:08;101861.58;;;22.21;67.09
75551;BME280;65071;53.082;18.218;2023-08-21T05:56:36;101862.69;;;22.25;66.56
75551;BME280;65071;53.082;18.218;2023-08-21T05:59:02;101857.89;;;22.31;66.61
75551;BME280;65071;53.082;18.218;2023-08-21T06:01:29;101856.02;;;22.42;66.93
75551;BME280;65071;53.082;18.218;2023-08-21T06:03:57;101854.02;;;22.50;65.80
75551;BME280;65071;53.082;18.218;2023-08-21T06:06:31;101856.91;;;22.58;65.39
75551;BME280;65071;53.082;18.218;2023-08-21T06:08:58;101862.92;;;22.71;65.68
75551;BME280;65071;53.082;18.218;2023-08-21T06:11:24;101869.15;;;22.83;65.05
75551;BME280;65071;53.082;18.218;2023-08-21T06:13:51;101870.61;;;22.91;64.98
75551;BME280;65071;53.082;18.218;2023-08-21T06:16:17;101875.68;;;23.00;64.42
75551;BME280;65071;53.082;18.218;2023-08-21T06:18:44;101878.92;;;23.08;64.25
75551;BME280;65071;53.082;18.218;2023-08-21T06:21:10;101877.59;;;23.17;63.71
75551;BME280;65071;53.082;18.218;2023-08-21T06:23:37;101875.29;;;23.28;63.27
75551;BME280;65071;53.082;18.218;2023-08-21T06:26:03;101872.89;;;23.40;62.91
75551;BME280;65071;53.082;18.218;2023-08-21T06:28:31;101878.96;;;23.53;62.19
75551;BME280;65071;53.082;18.218;2023-08-21T06:30:57;101877.70;;;23.61;61.57
75551;BME280;65071;53.082;18.218;2023-08-21T06:33:24;101878.92;;;23.65;61.39
75551;BME280;65071;53.082;18.218;2023-08-21T06:35:51;101876.21;;;23.70;60.89
75551;BME280;65071;53.082;18.218;2023-08-21T06:38:17;101879.05;;;23.75;60.16
75551;BME280;65071;53.082;18.218;2023-08-21T06:40:45;101875.45;;;23.86;60.69
75551;BME280;65071;53.082;18.218;2023-08-21T06:43:12;101873.33;;;24.00;61.19
75551;BME280;65071;53.082;18.218;2023-08-21T06:45:42;101874.57;;;24.06;59.61
75551;BME280;65071;53.082;18.218;2023-08-21T06:48:09;101872.11;;;24.13;59.24
75551;BME280;65071;53.082;18.218;2023-08-21T06:50:37;101868.06;;;24.19;59.27
75551;BME280;65071;53.082;18.218;2023-08-21T06:53:03;101867.98;;;24.25;59.05
75551;BME280;65071;53.082;18.218;2023-08-21T06:55:30;101866.98;;;24.30;56.58
75551;BME280;65071;53.082;18.218;2023-08-21T06:57:56;101867.42;;;24.41;57.46
75551;BME280;65071;53.082;18.218;2023-08-21T07:00:23;101867.17;;;24.53;57.89
75551;BME280;65071;53.082;18.218;2023-08-21T07:02:49;101867.55;;;24.68;57.78
75551;BME280;65071;53.082;18.218;2023-08-21T07:05:16;101865.05;;;24.81;56.96
75551;BME280;65071;53.082;18.218;2023-08-21T07:07:42;101860.14;;;24.95;57.22
75551;BME280;65071;53.082;18.218;2023-08-21T07:10:09;101859.92;;;24.97;55.42
75551;BME280;65071;53.082;18.218;2023-08-21T07:12:36;101854.16;;;24.84;54.19
75551;BME280;65071;53.082;18.218;2023-08-21T07:15:02;101849.34;;;24.83;55.08
75551;BME280;65071;53.082;18.218;2023-08-21T07:17:29;101850.59;;;24.92;54.80
75551;BME280;65071;53.082;18.218;2023-08-21T07:19:55;101854.85;;;24.98;54.21
75551;BME280;65071;53.082;18.218;2023-08-21T07:22:22;101856.33;;;25.10;53.85
75551;BME280;65071;53.082;18.218;2023-08-21T07:24:49;101860.20;;;25.21;53.21
75551;BME280;65071;53.082;18.218;2023-08-21T07:27:15;101859.34;;;25.29;53.53
75551;BME280;65071;53.082;18.218;2023-08-21T07:29:42;101861.06;;;25.39;53.38
75551;BME280;65071;53.082;18.218;2023-08-21T07:32:08;101860.20;;;25.43;53.36
75551;BME280;65071;53.082;18.218;2023-08-21T07:34:35;101866.39;;;25.51;53.22
75551;BME280;65071;53.082;18.218;2023-08-21T07:37:01;101874.59;;;25.58;51.63
75551;BME280;65071;53.082;18.218;2023-08-21T07:39:28;101871.72;;;25.60;51.55
75551;BME280;65071;53.082;18.218;2023-08-21T07:41:56;101868.52;;;25.64;52.11
75551;BME280;65071;53.082;18.218;2023-08-21T07:44:22;101865.38;;;25.73;51.43
75551;BME280;65071;53.082;18.218;2023-08-21T07:46:49;101866.69;;;25.83;51.89
75551;BME280;65071;53.082;18.218;2023-08-21T07:49:15;101871.23;;;25.92;51.02
75551;BME280;65071;53.082;18.218;2023-08-21T07:51:42;101868.28;;;26.00;50.86
75551;BME280;65071;53.082;18.218;2023-08-21T07:54:08;101874.45;;;26.11;51.92
75551;BME280;65071;53.082;18.218;2023-08-21T07:56:37;101878.23;;;26.25;50.58
75551;BME280;65071;53.082;18.218;2023-08-21T07:59:03;101875.86;;;26.32;50.12
75551;BME280;65071;53.082;18.218;2023-08-21T08:01:30;101871.66;;;26.38;50.77
75551;BME280;65071;53.082;18.218;2023-08-21T08:03:59;101869.00;;;26.40;50.24
75551;BME280;65071;53.082;18.218;2023-08-21T08:06:25;101870.33;;;26.36;50.01
75551;BME280;65071;53.082;18.218;2023-08-21T08:08:52;101871.98;;;26.29;49.29
75551;BME280;65071;53.082;18.218;2023-08-21T08:11:18;101871.34;;;26.32;49.69
75551;BME280;65071;53.082;18.218;2023-08-21T08:13:45;101869.06;;;26.42;49.32
75551;BME280;65071;53.082;18.218;2023-08-21T08:16:11;101863.10;;;26.49;48.41
75551;BME280;65071;53.082;18.218;2023-08-21T08:18:38;101865.06;;;26.60;48.41
75551;BME280;65071;53.082;18.218;2023-08-21T08:21:04;101865.61;;;26.57;47.52
75551;BME280;65071;53.082;18.218;2023-08-21T08:23:31;101869.05;;;26.52;48.06
75551;BME280;65071;53.082;18.218;2023-08-21T08:25:58;101865.49;;;26.56;49.24
75551;BME280;65071;53.082;18.218;2023-08-21T08:28:24;101866.92;;;26.57;48.62
75551;BME280;65071;53.082;18.218;2023-08-21T08:30:51;101866.39;;;26.59;48.20
75551;BME280;65071;53.082;18.218;2023-08-21T08:33:18;101863.89;;;26.69;48.79
75551;BME280;65071;53.082;18.218;2023-08-21T08:35:44;101865.02;;;26.67;46.46
75551;BME280;65071;53.082;18.218;2023-08-21T08:38:11;101861.30;;;26.65;47.04
75551;BME280;65071;53.082;18.218;2023-08-21T08:40:44;101856.77;;;26.68;47.66
75551;BME280;65071;53.082;18.218;2023-08-21T08:43:14;101858.84;;;26.76;46.80
75551;BME280;65071;53.082;18.218;2023-08-21T08:45:41;101863.64;;;26.80;46.31
75551;BME280;65071;53.082;18.218;2023-08-21T08:48:12;101858.16;;;26.83;46.45
75551;BME280;65071;53.082;18.218;2023-08-21T08:50:39;101851.14;;;26.91;46.67
75551;BME280;65071;53.082;18.218;2023-08-21T08:53:07;101854.02;;;27.02;46.32
75551;BME280;65071;53.082;18.218;2023-08-21T08:55:34;101852.91;;;27.11;46.45
75551;BME280;65071;53.082;18.218;2023-08-21T08:58:01;101852.05;;;27.20;46.02
75551;BME280;65071;53.082;18.218;2023-08-21T09:00:27;101852.21;;;27.23;45.70
75551;BME280;65071;53.082;18.218;2023-08-21T09:02:55;101852.39;;;27.26;46.11
75551;BME280;65071;53.082;18.218;2023-08-21T09:05:22;101844.75;;;27.21;44.72
75551;BME280;65071;53.082;18.218;2023-08-21T09:10:36;101842.13;;;27.31;45.43
75551;BME280;65071;53.082;18.218;2023-08-21T09:13:13;101843.21;;;27.36;44.77
75551;BME280;65071;53.082;18.218;2023-08-21T09:15:42;101846.04;;;27.41;44.78
75551;BME280;65071;53.082;18.218;2023-08-21T09:18:10;101845.59;;;27.46;44.56
75551;BME280;65071;53.082;18.218;2023-08-21T09:20:37;101841.77;;;27.54;44.23
75551;BME280;65071;53.082;18.218;2023-08-21T09:23:03;101840.08;;;27.61;43.47
75551;BME280;65071;53.082;18.218;2023-08-21T09:25:35;101833.34;;;27.66;43.34
75551;BME280;65071;53.082;18.218;2023-08-21T09:28:07;101835.02;;;27.67;43.12
75551;BME280;65071;53.082;18.218;2023-08-21T09:30:51;101832.33;;;27.73;43.17
75551;BME280;65071;53.082;18.218;2023-08-21T09:33:22;101826.70;;;27.81;42.63
75551;BME280;65071;53.082;18.218;2023-08-21T09:35:52;101821.61;;;27.86;42.80
75551;BME280;65071;53.082;18.218;2023-08-21T09:38:19;101818.54;;;27.92;42.89
75551;BME280;65071;53.082;18.218;2023-08-21T09:40:53;101816.10;;;27.98;42.52
75551;BME280;65071;53.082;18.218;2023-08-21T09:43:21;101820.55;;;27.95;41.26
75551;BME280;65071;53.082;18.218;2023-08-21T09:45:52;101821.98;;;27.97;41.87
75551;BME280;65071;53.082;18.218;2023-08-21T09:48:22;101816.01;;;28.03;41.28
75551;BME280;65071;53.082;18.218;2023-08-21T09:50:51;101813.12;;;28.10;41.24
75551;BME280;65071;53.082;18.218;2023-08-21T09:53:20;101813.02;;;28.13;40.93
75551;BME280;65071;53.082;18.218;2023-08-21T09:55:47;101808.37;;;28.19;40.66
75551;BME280;65071;53.082;18.218;2023-08-21T09:58:16;101807.86;;;28.25;40.85
75551;BME280;65071;53.082;18.218;2023-08-21T10:00:44;101805.42;;;28.33;40.05
75551;BME280;65071;53.082;18.218;2023-08-21T10:03:11;101803.96;;;28.35;40.46
75551;BME280;65071;53.082;18.218;2023-08-21T10:05:39;101803.27;;;28.34;39.36
75551;BME280;65071;53.082;18.218;2023-08-21T10:08:07;101803.73;;;28.32;39.24
75551;BME280;65071;53.082;18.218;2023-08-21T10:10:36;101798.39;;;28.37;39.26
75551;BME280;65071;53.082;18.218;2023-08-21T10:13:03;101803.20;;;28.41;39.35
75551;BME280;65071;53.082;18.218;2023-08-21T10:15:32;101798.09;;;28.26;39.33
75551;BME280;65071;53.082;18.218;2023-08-21T10:18:21;101796.36;;;28.30;39.29
75551;BME280;65071;53.082;18.218;2023-08-21T10:20:47;101798.52;;;28.38;39.19
75551;BME280;65071;53.082;18.218;2023-08-21T10:23:24;101796.17;;;28.45;38.96
75551;BME280;65071;53.082;18.218;2023-08-21T10:25:55;101785.86;;;28.53;38.16
75551;BME280;65071;53.082;18.218;2023-08-21T10:28:23;101788.62;;;28.68;38.58
75551;BME280;65071;53.082;18.218;2023-08-21T10:30:50;101790.14;;;28.80;38.37
75551;BME280;65071;53.082;18.218;2023-08-21T10:39:13;101788.48;;;29.07;36.91
75551;BME280;65071;53.082;18.218;2023-08-21T10:47:31;101783.73;;;28.91;37.41
75551;BME280;65071;53.082;18.218;2023-08-21T10:49:59;101778.37;;;28.83;37.81
75551;BME280;65071;53.082;18.218;2023-08-21T10:52:28;101774.52;;;28.90;37.73
75551;BME280;65071;53.082;18.218;2023-08-21T10:54:59;101776.70;;;29.04;37.41
75551;BME280;65071;53.082;18.218;2023-08-21T10:57:28;101769.56;;;29.19;37.14
75551;BME280;65071;53.082;18.218;2023-08-21T11:00:03;101772.80;;;29.25;37.20
75551;BME280;65071;53.082;18.218;2023-08-21T11:02:31;101775.16;;;29.30;36.58
75551;BME280;65071;53.082;18.218;2023-08-21T11:05:00;101778.01;;;29.31;36.79
75551;BME280;65071;53.082;18.218;2023-08-21T11:07:29;101777.78;;;29.28;37.08
75551;BME280;65071;53.082;18.218;2023-08-21T11:09:56;101781.95;;;29.28;37.37
75551;BME280;65071;53.082;18.218;2023-08-21T11:12:24;101781.28;;;29.13;36.98
75551;BME280;65071;53.082;18.218;2023-08-21T11:14:51;101782.14;;;29.03;37.37
75551;BME280;65071;53.082;18.218;2023-08-21T11:17:17;101781.27;;;29.01;37.92
75551;BME280;65071;53.082;18.218;2023-08-21T11:19:49;101780.35;;;29.05;37.52
75551;BME280;65071;53.082;18.218;2023-08-21T11:22:16;101780.95;;;29.11;37.35
75551;BME280;65071;53.082;18.218;2023-08-21T11:24:45;101777.05;;;29.13;37.58
75551;BME280;65071;53.082;18.218;2023-08-21T11:27:17;101775.25;;;29.13;37.65
75551;BME280;65071;53.082;18.218;2023-08-21T11:29:49;101778.59;;;29.13;38.35
75551;BME280;65071;53.082;18.218;2023-08-21T11:32:23;101778.17;;;29.11;38.27
75551;BME280;65071;53.082;18.218;2023-08-21T11:34:51;101776.27;;;29.20;38.46
75551;BME280;65071;53.082;18.218;2023-08-21T11:37:22;101775.25;;;29.29;38.63
75551;BME280;65071;53.082;18.218;2023-08-21T11:39:50;101775.06;;;29.31;38.43
75551;BME280;65071;53.082;18.218;2023-08-21T11:42:22;101774.63;;;29.36;38.76
75551;BME280;65071;53.082;18.218;2023-08-21T11:44:51;101772.61;;;29.44;38.55
75551;BME280;65071;53.082;18.218;2023-08-21T11:47:19;101766.36;;;29.36;38.97
75551;BME280;65071;53.082;18.218;2023-08-21T11:49:47;101763.45;;;29.28;38.97
75551;BME280;65071;53.082;18.218;2023-08-21T11:52:20;101762.98;;;29.19;38.89
75551;BME280;65071;53.082;18.218;2023-08-21T11:54:51;101767.96;;;29.08;39.71
75551;BME280;65071;53.082;18.218;2023-08-21T11:57:18;101760.88;;;28.92;40.21
75551;BME280;65071;53.082;18.218;2023-08-21T11:59:52;101765.05;;;28.81;40.41
75551;BME280;65071;53.082;18.218;2023-08-21T12:02:24;101765.98;;;28.78;40.81
75551;BME280;65071;53.082;18.218;2023-08-21T12:05:07;101764.66;;;28.84;40.87
75551;BME280;65071;53.082;18.218;2023-08-21T12:07:39;101765.12;;;28.79;40.93
75551;BME280;65071;53.082;18.218;2023-08-21T12:10:06;101762.39;;;28.75;40.98
75551;BME280;65071;53.082;18.218;2023-08-21T12:12:34;101764.09;;;28.72;41.11
75551;BME280;65071;53.082;18.218;2023-08-21T12:15:00;101761.14;;;28.72;41.23
75551;BME280;65071;53.082;18.218;2023-08-21T12:17:27;101763.14;;;28.77;41.32
75551;BME280;65071;53.082;18.218;2023-08-21T12:19:53;101765.61;;;28.72;41.24
75551;BME280;65071;53.082;18.218;2023-08-21T12:22:20;101760.41;;;28.68;41.26
75551;BME280;65071;53.082;18.218;2023-08-21T12:24:46;101758.23;;;28.65;41.36
75551;BME280;65071;53.082;18.218;2023-08-21T12:27:13;101756.02;;;28.60;41.46
75551;BME280;65071;53.082;18.218;2023-08-21T12:29:39;101754.52;;;28.62;41.70
75551;BME280;65071;53.082;18.218;2023-08-21T12:32:06;101758.80;;;28.61;41.20
75551;BME280;65071;53.082;18.218;2023-08-21T12:34:32;101759.11;;;28.64;41.61
75551;BME280;65071;53.082;18.218;2023-08-21T12:36:59;101757.21;;;28.59;41.61
75551;BME280;65071;53.082;18.218;2023-08-21T12:39:25;101755.52;;;28.60;42.05
75551;BME280;65071;53.082;18.218;2023-08-21T12:41:52;101753.50;;;28.67;42.16
75551;BME280;65071;53.082;18.218;2023-08-21T12:44:18;101749.62;;;28.82;41.84
75551;BME280;65071;53.082;18.218;2023-08-21T12:46:45;101748.27;;;28.90;41.84
75551;BME280;65071;53.082;18.218;2023-08-21T12:49:11;101748.48;;;29.02;41.38
75551;BME280;65071;53.082;18.218;2023-08-21T12:51:38;101743.96;;;29.07;41.15
75551;BME280;65071;53.082;18.218;2023-08-21T12:54:05;101748.02;;;29.13;41.15
75551;BME280;65071;53.082;18.218;2023-08-21T12:56:31;101745.14;;;29.11;41.64
75551;BME280;65071;53.082;18.218;2023-08-21T12:58:58;101744.16;;;29.19;41.30
75551;BME280;65071;53.082;18.218;2023-08-21T13:01:26;101740.55;;;29.27;41.15
75551;BME280;65071;53.082;18.218;2023-08-21T13:03:52;101744.83;;;29.29;41.08